createdAt,value
2023-04-01T00:00:16.322Z,0.60
2023-04-01T00:03:18.508Z,0.60
2023-04-01T00:06:20.781Z,0.63
2023-04-01T00:09:22.805Z,0.60
2023-04-01T00:12:26.328Z,0.87
2023-04-01T00:15:28.367Z,0.70
2023-04-01T00:18:30.410Z,0.50
2023-04-01T00:21:32.732Z,0.70
2023-04-01T00:24:34.803Z,0.77
2023-04-01T00:27:36.818Z,0.60
2023-04-01T00:30:39.362Z,0.77
2023-04-01T00:33:42.437Z,0.60
2023-04-01T00:36:44.796Z,0.50
2023-04-01T00:39:47.510Z,0.70
2023-04-01T00:42:49.581Z,1.07
2023-04-01T00:45:51.662Z,0.50
2023-04-01T00:48:56.891Z,0.83
2023-04-01T00:52:02.902Z,0.80
2023-04-01T00:55:08.586Z,0.73
2023-04-01T00:58:16.130Z,0.70
2023-04-01T01:01:18.667Z,0.60
2023-04-01T01:04:32.159Z,0.80
2023-04-01T01:07:34.164Z,0.87
2023-04-01T01:10:40.031Z,1.03
2023-04-01T01:13:54.822Z,0.83
2023-04-01T01:17:11.957Z,0.83
2023-04-01T01:20:35.182Z,0.73
2023-04-01T01:23:57.492Z,0.80
2023-04-01T01:27:13.991Z,0.50
2023-04-01T01:31:08.410Z,1.03
2023-04-01T01:34:23.287Z,0.60
2023-04-01T01:37:28.862Z,0.67
2023-04-01T01:40:34.508Z,0.90
2023-04-01T01:43:45.862Z,0.60
2023-04-01T01:46:50.785Z,0.93
2023-04-01T01:49:55.230Z,0.80
2023-04-01T01:53:13.074Z,0.80
2023-04-01T01:56:15.353Z,0.93
2023-04-01T01:59:22.318Z,0.60
2023-04-01T02:02:26.910Z,0.70
2023-04-01T02:05:32.272Z,0.87
2023-04-01T02:09:05.066Z,0.87
2023-04-01T02:12:10.668Z,1.17
2023-04-01T02:15:18.140Z,0.80
2023-04-01T02:18:21.800Z,0.70
2023-04-01T02:21:26.784Z,0.77
2023-04-01T02:24:32.525Z,0.60
2023-04-01T02:27:34.642Z,0.60
2023-04-01T02:30:39.843Z,0.70
2023-04-01T02:33:43.101Z,0.97
2023-04-01T02:36:45.402Z,0.93
2023-04-01T02:39:47.932Z,1.17
2023-04-01T02:42:49.980Z,0.80
2023-04-01T02:45:51.966Z,0.77
2023-04-01T02:48:54.920Z,0.73
2023-04-01T02:51:56.938Z,0.80
2023-04-01T02:54:59.238Z,0.73
2023-04-01T02:58:01.750Z,1.13
2023-04-01T03:01:04.805Z,0.70
2023-04-01T03:04:06.918Z,1.00
2023-04-01T03:07:11.075Z,1.03
2023-04-01T03:10:13.250Z,0.90
2023-04-01T03:13:15.281Z,0.73
2023-04-01T03:16:18.461Z,0.70
2023-04-01T03:19:20.558Z,0.70
2023-04-01T03:22:22.846Z,0.80
2023-04-01T03:25:25.043Z,0.70
2023-04-01T03:28:27.185Z,0.70
2023-04-01T03:31:29.254Z,0.50
2023-04-01T03:34:32.761Z,0.70
2023-04-01T03:37:34.967Z,0.80
2023-04-01T03:40:39.375Z,0.70
2023-04-01T03:43:42.293Z,0.40
2023-04-01T03:46:44.482Z,0.60
2023-04-01T03:49:46.680Z,0.53
2023-04-01T03:52:48.741Z,0.70
2023-04-01T03:55:52.472Z,0.70
2023-04-01T03:58:54.437Z,0.70
2023-04-01T04:01:56.435Z,0.50
2023-04-01T04:04:58.695Z,0.60
2023-04-01T04:08:04.682Z,0.50
2023-04-01T04:11:08.120Z,0.50
2023-04-01T04:14:12.469Z,0.77
2023-04-01T04:17:17.327Z,0.60
2023-04-01T04:20:19.869Z,0.50
2023-04-01T04:23:22.347Z,0.60
2023-04-01T04:26:24.382Z,0.90
2023-04-01T04:29:32.554Z,0.67
2023-04-01T04:32:36.329Z,0.60
2023-04-01T04:35:38.744Z,0.63
2023-04-01T04:38:40.843Z,0.70
2023-04-01T04:41:43.363Z,0.60
2023-04-01T04:44:45.498Z,0.90
2023-04-01T04:47:47.602Z,0.40
2023-04-01T04:50:51.638Z,0.60
2023-04-01T04:53:55.750Z,0.70
2023-04-01T04:57:07.328Z,0.40
2023-04-01T05:00:16.151Z,0.63
2023-04-01T05:03:39.081Z,0.60
2023-04-01T05:06:41.365Z,0.60
2023-04-01T05:09:43.551Z,0.57
2023-04-01T05:12:45.671Z,0.50
2023-04-01T05:15:52.724Z,0.40
2023-04-01T05:18:55.023Z,0.33
2023-04-01T05:21:57.543Z,0.53
2023-04-01T05:24:59.549Z,0.30
2023-04-01T05:28:01.742Z,0.50
2023-04-01T05:31:07.016Z,0.40
2023-04-01T05:34:14.989Z,0.50
2023-04-01T05:37:17.042Z,0.50
2023-04-01T05:40:19.198Z,0.30
2023-04-01T05:43:21.184Z,0.50
2023-04-01T05:46:25.040Z,0.60
2023-04-01T05:49:34.602Z,0.40
2023-04-01T05:52:38.832Z,0.43
2023-04-01T05:55:40.873Z,0.40
2023-04-01T05:58:43.294Z,0.50
2023-04-01T06:01:45.430Z,0.30
2023-04-01T06:04:48.148Z,0.50
2023-04-01T06:07:57.231Z,0.60
2023-04-01T06:11:02.358Z,0.60
2023-04-01T06:14:23.030Z,0.50
2023-04-01T06:17:47.781Z,0.60
2023-04-01T06:21:12.149Z,0.60
2023-04-01T06:24:43.111Z,0.50
2023-04-01T06:28:18.201Z,0.60
2023-04-01T06:31:45.187Z,0.50
2023-04-01T06:35:19.692Z,0.57
2023-04-01T06:38:37.265Z,0.60
2023-04-01T06:41:54.550Z,0.30
2023-04-01T06:45:20.691Z,1.00
2023-04-01T06:49:28.694Z,0.40
2023-04-01T06:53:18.057Z,0.60
2023-04-01T06:56:43.164Z,0.40
2023-04-01T06:59:53.155Z,0.60
2023-04-01T07:03:09.069Z,0.60
2023-04-01T07:06:32.375Z,0.50
2023-04-01T07:09:42.673Z,0.40
2023-04-01T07:13:46.376Z,0.70
2023-04-01T07:17:02.242Z,0.70
2023-04-01T07:20:33.540Z,0.67
2023-04-01T07:23:45.914Z,0.60
2023-04-01T07:27:20.062Z,0.53
2023-04-01T07:30:25.982Z,0.40
2023-04-01T07:33:48.634Z,0.63
2023-04-01T07:37:02.716Z,0.73
2023-04-01T07:40:50.992Z,1.50
2023-04-01T07:44:25.037Z,0.80
2023-04-01T07:47:47.678Z,0.60
2023-04-01T07:50:57.952Z,0.60
2023-04-01T07:54:09.007Z,0.50
2023-04-01T07:57:39.983Z,0.77
2023-04-01T08:00:52.569Z,0.57
2023-04-01T08:04:17.199Z,0.50
2023-04-01T08:07:27.696Z,0.67
2023-04-01T08:11:23.350Z,0.57
2023-04-01T08:14:54.519Z,0.50
2023-04-01T08:18:33.693Z,0.60
2023-04-01T08:21:50.818Z,0.50
2023-04-01T08:24:55.122Z,0.57
2023-04-01T08:28:15.231Z,0.30
2023-04-01T08:31:26.012Z,0.33
2023-04-01T08:34:39.710Z,0.40
2023-04-01T08:37:49.571Z,0.30
2023-04-01T08:41:05.656Z,0.40
2023-04-01T08:45:01.643Z,0.60
2023-04-01T08:48:09.968Z,0.40
2023-04-01T08:51:33.657Z,0.30
2023-04-01T08:55:04.209Z,0.30
2023-04-01T08:58:48.426Z,0.33
2023-04-01T09:02:36.127Z,0.40
2023-04-01T09:06:12.703Z,0.27
2023-04-01T09:09:20.897Z,0.20
2023-04-01T09:12:31.811Z,0.40
2023-04-01T09:15:48.385Z,0.50
2023-04-01T09:18:50.471Z,0.40
2023-04-01T09:21:52.712Z,0.30
2023-04-01T09:25:16.652Z,0.33
2023-04-01T09:28:35.178Z,0.50
2023-04-01T09:31:46.915Z,0.30
2023-04-01T09:35:25.762Z,0.27
2023-04-01T09:38:39.466Z,0.43
2023-04-01T09:41:49.380Z,0.33
2023-04-01T09:45:00.470Z,0.33
2023-04-01T09:48:22.839Z,0.30
2023-04-01T09:52:20.558Z,0.30
2023-04-01T09:55:48.530Z,0.30
2023-04-01T09:58:56.402Z,0.33
2023-04-01T10:02:23.983Z,0.27
2023-04-01T10:05:44.773Z,0.40
2023-04-01T10:09:16.224Z,0.40
2023-04-01T10:12:32.871Z,0.30
2023-04-01T10:16:05.715Z,0.40
2023-04-01T10:19:40.805Z,0.20
2023-04-01T10:22:58.802Z,0.30
2023-04-01T10:26:23.171Z,0.40
2023-04-01T10:30:09.191Z,0.40
2023-04-01T10:33:47.403Z,0.30
2023-04-01T10:36:53.115Z,0.30
2023-04-01T10:40:31.193Z,0.30
2023-04-01T10:44:26.648Z,0.33
2023-04-01T10:48:03.039Z,0.40
2023-04-01T10:51:37.223Z,0.30
2023-04-01T10:54:50.902Z,0.20
2023-04-01T10:58:48.871Z,0.30
2023-04-01T11:02:43.471Z,0.30
2023-04-01T11:06:27.079Z,0.30
2023-04-01T11:10:03.604Z,0.30
2023-04-01T11:13:48.277Z,0.30
2023-04-01T11:17:10.217Z,0.20
2023-04-01T11:20:21.225Z,0.30
2023-04-01T11:24:04.873Z,0.23
2023-04-01T11:27:27.078Z,0.30
2023-04-01T11:31:00.142Z,0.20
2023-04-01T11:34:24.002Z,0.23
2023-04-01T11:37:38.480Z,0.30
2023-04-01T11:41:29.333Z,0.30
2023-04-01T11:45:31.434Z,0.20
2023-04-01T11:49:07.512Z,0.30
2023-04-01T11:52:29.831Z,0.30
2023-04-01T11:56:04.029Z,0.20
2023-04-01T11:59:15.020Z,0.30
2023-04-01T12:02:21.264Z,0.20
2023-04-01T12:05:29.691Z,0.30
2023-04-01T12:09:05.493Z,0.27
2023-04-01T12:12:34.031Z,0.57
2023-04-01T12:16:12.551Z,0.30
2023-04-01T12:19:33.534Z,0.20
2023-04-01T12:23:14.174Z,0.40
2023-04-01T12:26:37.666Z,0.20
2023-04-01T12:30:17.078Z,0.27
2023-04-01T12:33:54.219Z,0.30
2023-04-01T12:37:14.852Z,0.30
2023-04-01T12:40:38.011Z,0.30
2023-04-01T12:43:40.082Z,0.40
2023-04-01T12:47:06.889Z,0.37
2023-04-01T12:50:33.208Z,0.37
2023-04-01T12:53:49.714Z,0.50
2023-04-01T12:57:12.197Z,0.30
2023-04-01T13:00:47.473Z,0.50
2023-04-01T13:04:22.366Z,0.30
2023-04-01T13:07:39.351Z,0.50
2023-04-01T13:10:53.031Z,0.30
2023-04-01T13:14:31.401Z,0.30
2023-04-01T13:17:52.387Z,0.20
2023-04-01T13:21:16.809Z,0.30
2023-04-01T13:24:51.702Z,0.30
2023-04-01T13:28:02.939Z,0.60
2023-04-01T13:31:14.094Z,0.40
2023-04-01T13:34:48.892Z,0.40
2023-04-01T13:38:26.947Z,0.20
2023-04-01T13:41:40.696Z,0.30
2023-04-01T13:45:11.098Z,0.20
2023-04-01T13:48:33.736Z,0.37
2023-04-01T13:52:04.336Z,0.40
2023-04-01T13:55:31.855Z,0.50
2023-04-01T13:58:40.463Z,0.20
2023-04-01T14:01:51.409Z,0.30
2023-04-01T14:05:41.829Z,0.40
2023-04-01T14:08:48.029Z,0.40
2023-04-01T14:12:05.004Z,0.30
2023-04-01T14:15:36.779Z,0.30
2023-04-01T14:18:55.211Z,0.40
2023-04-01T14:22:01.036Z,0.37
2023-04-01T14:25:24.953Z,0.30
2023-04-01T14:28:29.907Z,0.30
2023-04-01T14:32:09.176Z,0.30
2023-04-01T14:35:27.369Z,0.33
2023-04-01T14:38:36.656Z,0.30
2023-04-01T14:41:56.175Z,0.50
2023-04-01T14:45:49.315Z,0.20
2023-04-01T14:48:58.606Z,0.30
2023-04-01T14:52:25.842Z,0.47
2023-04-01T14:55:45.913Z,0.50
2023-04-01T14:58:58.416Z,0.20
2023-04-01T15:02:28.314Z,0.40
2023-04-01T15:06:17.911Z,0.40
2023-04-01T15:10:20.954Z,0.37
2023-04-01T15:13:35.223Z,0.33
2023-04-01T15:17:10.599Z,0.40
2023-04-01T15:20:32.843Z,0.30
2023-04-01T15:23:46.941Z,0.30
2023-04-01T15:26:56.645Z,0.30
2023-04-01T15:30:18.484Z,0.20
2023-04-01T15:33:35.608Z,0.40
2023-04-01T15:36:57.624Z,0.27
2023-04-01T15:40:52.715Z,0.27
2023-04-01T15:43:54.753Z,0.30
2023-04-01T15:46:59.139Z,0.30
2023-04-01T15:50:27.943Z,0.40
2023-04-01T15:54:13.249Z,0.20
2023-04-01T15:57:28.132Z,0.30
2023-04-01T16:00:44.311Z,0.30
2023-04-01T16:04:23.611Z,0.20
2023-04-01T16:07:45.290Z,0.40
2023-04-01T16:10:47.335Z,0.23
2023-04-01T16:14:14.975Z,0.20
2023-04-01T16:17:43.388Z,0.30
2023-04-01T16:20:57.109Z,0.33
2023-04-01T16:24:10.043Z,0.20
2023-04-01T16:27:19.315Z,0.20
2023-04-01T16:30:39.703Z,0.20
2023-04-01T16:33:57.668Z,0.30
2023-04-01T16:37:14.292Z,0.23
2023-04-01T16:40:44.400Z,0.30
2023-04-01T16:43:56.196Z,0.20
2023-04-01T16:47:09.278Z,0.30
2023-04-01T16:50:26.778Z,0.30
2023-04-01T16:53:47.650Z,0.20
2023-04-01T16:56:57.130Z,0.30
2023-04-01T17:00:24.123Z,0.20
2023-04-01T17:03:45.742Z,0.27
2023-04-01T17:07:00.168Z,0.20
2023-04-01T17:10:08.903Z,0.23
2023-04-01T17:13:37.429Z,0.20
2023-04-01T17:17:02.599Z,0.17
2023-04-01T17:20:05.006Z,0.10
2023-04-01T17:23:40.655Z,0.20
2023-04-01T17:26:55.584Z,0.30
2023-04-01T17:30:26.406Z,0.10
2023-04-01T17:33:55.643Z,0.20
2023-04-01T17:37:11.420Z,0.20
2023-04-01T17:40:32.400Z,0.20
2023-04-01T17:43:51.470Z,0.80
2023-04-01T17:47:17.439Z,0.20
2023-04-01T17:50:49.260Z,0.20
2023-04-01T17:54:35.127Z,0.27
2023-04-01T17:57:54.775Z,0.20
2023-04-01T18:01:22.218Z,0.53
2023-04-01T18:04:37.051Z,0.50
2023-04-01T18:08:07.837Z,1.20
2023-04-01T18:11:40.631Z,0.80
2023-04-01T18:14:45.312Z,0.20
2023-04-01T18:18:22.047Z,0.20
2023-04-01T18:21:45.560Z,0.30
2023-04-01T18:25:14.280Z,0.20
2023-04-01T18:28:45.670Z,0.20
2023-04-01T18:31:59.101Z,0.20
2023-04-01T18:35:40.998Z,0.30
2023-04-01T18:38:55.935Z,0.20
2023-04-01T18:42:45.065Z,0.30
2023-04-01T18:45:54.955Z,0.20
2023-04-01T18:49:19.254Z,0.20
2023-04-01T18:52:44.539Z,0.30
2023-04-01T18:55:59.415Z,0.30
2023-04-01T18:59:19.815Z,0.33
2023-04-01T19:02:42.941Z,0.20
2023-04-01T19:05:49.623Z,0.30
2023-04-01T19:08:54.915Z,0.30
2023-04-01T19:12:10.728Z,0.20
2023-04-01T19:15:49.804Z,0.20
2023-04-01T19:19:12.319Z,0.20
2023-04-01T19:22:53.803Z,0.30
2023-04-01T19:26:02.898Z,0.20
2023-04-01T19:29:36.628Z,0.10
2023-04-01T19:33:01.419Z,0.20
2023-04-01T19:36:38.449Z,0.20
2023-04-01T19:40:04.689Z,0.20
2023-04-01T19:43:34.892Z,0.10
2023-04-01T19:47:01.207Z,0.20
2023-04-01T19:50:37.164Z,0.20
2023-04-01T19:53:53.095Z,0.20
2023-04-01T19:57:17.353Z,0.30
2023-04-01T20:00:54.091Z,0.20
2023-04-01T20:04:08.666Z,0.30
2023-04-01T20:07:29.269Z,0.20
2023-04-01T20:10:41.869Z,0.30
2023-04-01T20:14:14.680Z,0.20
2023-04-01T20:17:32.556Z,0.20
2023-04-01T20:20:36.836Z,0.30
2023-04-01T20:23:49.662Z,0.27
2023-04-01T20:27:06.486Z,0.20
2023-04-01T20:30:37.897Z,0.27
2023-04-01T20:34:19.674Z,0.23
2023-04-01T20:37:36.898Z,0.40
2023-04-01T20:40:44.709Z,0.20
2023-04-01T20:44:02.551Z,0.27
2023-04-01T20:47:22.754Z,0.20
2023-04-01T20:50:53.379Z,0.30
2023-04-01T20:54:17.424Z,0.53
2023-04-01T20:57:27.719Z,0.30
2023-04-01T21:00:45.194Z,0.20
2023-04-01T21:04:25.055Z,0.30
2023-04-01T21:07:40.679Z,0.20
2023-04-01T21:10:51.297Z,0.30
2023-04-01T21:13:59.458Z,0.20
2023-04-01T21:17:05.490Z,0.20
2023-04-01T21:20:14.677Z,0.30
2023-04-01T21:23:30.370Z,0.20
2023-04-01T21:27:09.877Z,0.37
2023-04-01T21:30:41.641Z,0.40
2023-04-01T21:34:21.104Z,0.20
2023-04-01T21:37:47.952Z,0.33
2023-04-01T21:41:27.396Z,0.30
2023-04-01T21:44:54.877Z,0.33
2023-04-01T21:48:21.530Z,0.30
2023-04-01T21:51:45.104Z,0.20
2023-04-01T21:55:22.967Z,0.20
2023-04-01T21:58:44.944Z,0.23
2023-04-01T22:01:49.823Z,0.27
2023-04-01T22:05:06.706Z,0.30
2023-04-01T22:08:35.305Z,0.20
2023-04-01T22:11:57.565Z,0.20
2023-04-01T22:15:26.797Z,0.20
2023-04-01T22:18:36.084Z,0.20
2023-04-01T22:21:42.827Z,0.30
2023-04-01T22:24:51.802Z,0.30
2023-04-01T22:28:08.144Z,0.30
2023-04-01T22:31:14.994Z,0.20
2023-04-01T22:34:51.388Z,0.20
2023-04-01T22:38:04.465Z,0.20
2023-04-01T22:41:22.128Z,0.20
2023-04-01T22:44:36.793Z,0.27
2023-04-01T22:47:57.936Z,0.40
2023-04-01T22:51:46.227Z,0.33
2023-04-01T22:54:53.835Z,0.20
2023-04-01T22:58:06.069Z,0.40
2023-04-01T23:01:16.430Z,0.30
2023-04-01T23:04:25.320Z,0.30
2023-04-01T23:08:01.503Z,0.10
2023-04-01T23:11:07.481Z,0.20
2023-04-01T23:14:24.970Z,0.20
2023-04-01T23:17:38.344Z,0.37
2023-04-01T23:20:55.372Z,0.17
2023-04-01T23:24:15.860Z,0.30
2023-04-01T23:27:29.442Z,0.30
2023-04-01T23:30:40.707Z,0.30
2023-04-01T23:33:42.717Z,0.30
2023-04-01T23:36:50.468Z,0.20
2023-04-01T23:39:54.429Z,0.30
2023-04-01T23:42:56.884Z,0.47
2023-04-01T23:46:04.021Z,0.30
2023-04-01T23:49:23.024Z,0.30
2023-04-01T23:52:28.068Z,1.03
2023-04-01T23:55:34.579Z,0.30
2023-04-01T23:58:42.984Z,0.10
